2TN1 weather

Baptist Memorial Hospital Heliport
Ripley, Tennessee, United States

Public forecast

Using degrees Fahrenheit for public forecast. Weather courtesy of forecast.io.

METAR (pilot weather report)

Closest report is Dyersburg Regional Airport, 16.6 nm (30.8 km) NNE. Retrieved 2019/05/19 15:40 UTC (11 minutes ago):

KDYR 191540Z AUTO 20008KT 10SM SCT014 BKN030 23/20 A2984 RMK AO2 PNO $

TAF (pilot weather forecast)

Closest forecast is McKellar-Sipes Regional Airport, 31.6 nm (58.6 km) ESE. Retrieved 2019/05/19 12:42 UTC (3 hours ago):

TAF KMKL 191141Z 1912/2012 17008KT P6SM VCSH BKN040 OVC100 TEMPO 1912/1916 6SM -SHRA BKN015 FM191600 21012G22KT P6SM BKN025 FM192200 25012G22KT P6SM VCTS BKN040CB FM200300 VRB04KT P6SM FEW030 SCT250